Time;durP1;ratioP1;P1;durP2;ratioP2;P2;SDS_P1;SDS_P2;PMS_P1;PMS_P2;Temp;Humidity;BMP_temperature;BMP_pressure;BME280_temperature;BME280_humidity;BME280_pressure;Samples;Min_cycle;Max_cycle;Signal;HPM_P1;HPM_P2
2020/09/20 00:00:56;;;;;;;3.6;2.2;;;;;;;;;;;;;
2020/09/20 00:03:23;;;;;;;3.7;2.4;;;;;;;;;;;;;
2020/09/20 00:05:48;;;;;;;2.8;2.3;;;;;;;;;;;;;
2020/09/20 00:08:13;;;;;;;4.5;2.8;;;;;;;;;;;;;
2020/09/20 00:10:38;;;;;;;5.9;2.6;;;;;;;;;;;;;
2020/09/20 00:13:04;;;;;;;6;2.8;;;;;;;;;;;;;
2020/09/20 00:15:29;;;;;;;3.6;2.7;;;;;;;;;;;;;
2020/09/20 00:17:54;;;;;;;5.7;3;;;;;;;;;;;;;
2020/09/20 00:20:19;;;;;;;5;2.6;;;;;;;;;;;;;
2020/09/20 00:22:44;;;;;;;8.4;2.9;;;;;;;;;;;;;
2020/09/20 00:25:10;;;;;;;4.7;3.2;;;;;;;;;;;;;
2020/09/20 00:27:35;;;;;;;4.2;2.9;;;;;;;;;;;;;
2020/09/20 00:30:00;;;;;;;4.1;2.8;;;;;;;;;;;;;
2020/09/20 00:32:26;;;;;;;4;2.4;;;;;;;;;;;;;
2020/09/20 00:34:50;;;;;;;3.3;2.6;;;;;;;;;;;;;
2020/09/20 00:37:15;;;;;;;4.8;3.1;;;;;;;;;;;;;
2020/09/20 00:39:40;;;;;;;4.6;2.9;;;;;;;;;;;;;
2020/09/20 00:42:06;;;;;;;4.6;3.1;;;;;;;;;;;;;
2020/09/20 00:44:43;;;;;;;6.3;3.2;;;;;;;;;;;;;
2020/09/20 00:46:56;;;;;;;12.1;3.4;;;;;;;;;;;;;
2020/09/20 00:49:21;;;;;;;4.5;3.2;;;;;;;;;;;;;
2020/09/20 00:51:47;;;;;;;4.1;2.9;;;;;;;;;;;;;
2020/09/20 00:54:12;;;;;;;4;2.8;;;;;;;;;;;;;
2020/09/20 00:56:44;;;;;;;3.4;2.6;;;;;;;;;;;;;
2020/09/20 00:59:05;;;;;;;6.6;3.6;;;;;;;;;;;;;
2020/09/20 01:01:36;;;;;;;4.3;2.9;;;;;;;;;;;;;
2020/09/20 01:03:56;;;;;;;4.4;3;;;;;;;;;;;;;
2020/09/20 01:06:21;;;;;;;4.3;2.7;;;;;;;;;;;;;
2020/09/20 01:08:47;;;;;;;4.5;2.9;;;;;;;;;;;;;
2020/09/20 01:11:13;;;;;;;4.2;2.1;;;;;;;;;;;;;
2020/09/20 01:13:36;;;;;;;3.8;2.5;;;;;;;;;;;;;
2020/09/20 01:16:01;;;;;;;4.6;3;;;;;;;;;;;;;
2020/09/20 01:18:26;;;;;;;10.7;3.1;;;;;;;;;;;;;
2020/09/20 01:20:53;;;;;;;5;3;;;;;;;;;;;;;
2020/09/20 01:23:17;;;;;;;7.5;3.1;;;;;;;;;;;;;
2020/09/20 01:25:43;;;;;;;5.9;3.6;;;;;;;;;;;;;
2020/09/20 01:28:12;;;;;;;4;2.8;;;;;;;;;;;;;
2020/09/20 01:30:40;;;;;;;5.4;3.1;;;;;;;;;;;;;
2020/09/20 01:32:57;;;;;;;3;2.4;;;;;;;;;;;;;
2020/09/20 01:35:35;;;;;;;3.7;2.6;;;;;;;;;;;;;
2020/09/20 01:37:50;;;;;;;6.6;3.7;;;;;;;;;;;;;
2020/09/20 01:40:15;;;;;;;3.1;2.3;;;;;;;;;;;;;
2020/09/20 01:42:41;;;;;;;4.1;2.9;;;;;;;;;;;;;
2020/09/20 01:45:06;;;;;;;5.9;2.9;;;;;;;;;;;;;
2020/09/20 01:47:32;;;;;;;5.1;2.7;;;;;;;;;;;;;
2020/09/20 01:49:57;;;;;;;4;2.6;;;;;;;;;;;;;
2020/09/20 01:52:24;;;;;;;4.8;2.7;;;;;;;;;;;;;
2020/09/20 01:54:49;;;;;;;3.9;2.6;;;;;;;;;;;;;
2020/09/20 01:57:15;;;;;;;4.6;2.8;;;;;;;;;;;;;
2020/09/20 01:59:40;;;;;;;3.3;2.1;;;;;;;;;;;;;
2020/09/20 02:02:06;;;;;;;3.8;2.6;;;;;;;;;;;;;
2020/09/20 02:04:32;;;;;;;3.8;2.7;;;;;;;;;;;;;
2020/09/20 02:06:58;;;;;;;3.9;2.5;;;;;;;;;;;;;
2020/09/20 02:09:23;;;;;;;10.9;3.7;;;;;;;;;;;;;
2020/09/20 02:11:49;;;;;;;4;2.2;;;;;;;;;;;;;
2020/09/20 02:14:14;;;;;;;3.7;2.6;;;;;;;;;;;;;
2020/09/20 02:16:41;;;;;;;3.6;2.8;;;;;;;;;;;;;
2020/09/20 02:19:06;;;;;;;3.4;2.2;;;;;;;;;;;;;
2020/09/20 02:21:33;;;;;;;4.7;3.2;;;;;;;;;;;;;
2020/09/20 02:23:58;;;;;;;7.5;3.2;;;;;;;;;;;;;
2020/09/20 02:26:24;;;;;;;5.3;2.8;;;;;;;;;;;;;
2020/09/20 02:28:49;;;;;;;4.4;2.5;;;;;;;;;;;;;
2020/09/20 02:31:16;;;;;;;4.4;2.7;;;;;;;;;;;;;
2020/09/20 02:33:41;;;;;;;5.8;3.2;;;;;;;;;;;;;
2020/09/20 02:36:06;;;;;;;4.6;3.1;;;;;;;;;;;;;
2020/09/20 02:38:31;;;;;;;4.5;2.9;;;;;;;;;;;;;
2020/09/20 02:40:57;;;;;;;3.8;2.7;;;;;;;;;;;;;
2020/09/20 02:43:23;;;;;;;6.5;3.1;;;;;;;;;;;;;
2020/09/20 02:45:50;;;;;;;5;3.4;;;;;;;;;;;;;
2020/09/20 02:48:14;;;;;;;4.4;2.7;;;;;;;;;;;;;
2020/09/20 02:50:40;;;;;;;7.4;3.7;;;;;;;;;;;;;
2020/09/20 02:53:05;;;;;;;5.2;2.9;;;;;;;;;;;;;
2020/09/20 02:55:31;;;;;;;5.9;2.9;;;;;;;;;;;;;
2020/09/20 02:57:56;;;;;;;4;2.7;;;;;;;;;;;;;
2020/09/20 03:00:21;;;;;;;4.4;3.1;;;;;;;;;;;;;
2020/09/20 03:02:47;;;;;;;5.8;3.4;;;;;;;;;;;;;
2020/09/20 03:05:12;;;;;;;4.6;3.1;;;;;;;;;;;;;
2020/09/20 03:07:37;;;;;;;5;2.7;;;;;;;;;;;;;
2020/09/20 03:10:02;;;;;;;3.8;2.9;;;;;;;;;;;;;
2020/09/20 03:12:28;;;;;;;3.9;3;;;;;;;;;;;;;
2020/09/20 03:14:53;;;;;;;6.6;3.1;;;;;;;;;;;;;
2020/09/20 03:17:19;;;;;;;3.6;2.4;;;;;;;;;;;;;
2020/09/20 03:19:44;;;;;;;8.9;3;;;;;;;;;;;;;
2020/09/20 03:22:10;;;;;;;4.1;2.8;;;;;;;;;;;;;
2020/09/20 03:24:35;;;;;;;5.3;3;;;;;;;;;;;;;
2020/09/20 03:27:01;;;;;;;5;2.6;;;;;;;;;;;;;
2020/09/20 03:29:26;;;;;;;6.8;3.6;;;;;;;;;;;;;
2020/09/20 03:31:53;;;;;;;4.7;3.1;;;;;;;;;;;;;
2020/09/20 03:34:18;;;;;;;3.5;2.8;;;;;;;;;;;;;
2020/09/20 03:36:43;;;;;;;6.1;3.2;;;;;;;;;;;;;
2020/09/20 03:39:08;;;;;;;4.1;2.6;;;;;;;;;;;;;
2020/09/20 03:41:34;;;;;;;4;3.2;;;;;;;;;;;;;
2020/09/20 03:43:59;;;;;;;5.1;3.3;;;;;;;;;;;;;
2020/09/20 03:46:25;;;;;;;5;2.6;;;;;;;;;;;;;
2020/09/20 03:48:51;;;;;;;6;2.9;;;;;;;;;;;;;
2020/09/20 03:51:17;;;;;;;4.3;3.2;;;;;;;;;;;;;
2020/09/20 03:53:42;;;;;;;4.8;3.5;;;;;;;;;;;;;
2020/09/20 03:56:09;;;;;;;4.6;3.3;;;;;;;;;;;;;
2020/09/20 03:58:34;;;;;;;4.9;3;;;;;;;;;;;;;
2020/09/20 04:02:30;;;;;;;6.7;3;;;;;;;16.19;89.16895;936.4719;;;;
2020/09/20 04:04:55;;;;;;;5.1;3.1;;;;;;;16.26;88.6416;936.4542;;;;
2020/09/20 04:07:21;;;;;;;3.5;2.7;;;;;;;16.24;88.62402;936.4328;;;;
2020/09/20 04:09:47;;;;;;;4.8;2.6;;;;;;;16.21;88.52637;936.4283;;;;
2020/09/20 04:12:12;;;;;;;5.7;3.3;;;;;;;15.92;89.88965;936.4048;;;;
2020/09/20 04:14:37;;;;;;;4.3;2.7;;;;;;;16.07;89.57227;936.3636;;;;
2020/09/20 04:17:02;;;;;;;5.6;3;;;;;;;16.18;88.77344;936.4119;;;;
2020/09/20 04:19:27;;;;;;;3.3;2.7;;;;;;;16.29;87.62695;936.4144;;;;
2020/09/20 04:21:52;;;;;;;4;3;;;;;;;16.24;87.78027;936.3711;;;;
2020/09/20 04:24:18;;;;;;;4.7;2.7;;;;;;;16.15;87.94727;936.311;;;;
2020/09/20 04:26:42;;;;;;;4.4;2.3;;;;;;;16.15;88.31738;936.3569;;;;
2020/09/20 04:29:08;;;;;;;3.9;2.5;;;;;;;15.89;89.88086;936.3081;;;;
2020/09/20 04:31:34;;;;;;;4.1;3;;;;;;;15.78;90.04492;936.2715;;;;
2020/09/20 04:33:59;;;;;;;3.5;2.6;;;;;;;15.66;90.71191;936.2411;;;;
2020/09/20 04:36:26;;;;;;;5.5;3.1;;;;;;;15.86;89.85352;936.278;;;;
2020/09/20 04:38:56;;;;;;;3.8;2.5;;;;;;;15.92;89.33301;936.2715;;;;
2020/09/20 04:41:21;;;;;;;4;3;;;;;;;15.71;90.51563;936.161;;;;
2020/09/20 04:43:47;;;;;;;6.8;3.2;;;;;;;15.91;89.62207;936.2475;;;;
2020/09/20 04:46:12;;;;;;;3.6;2.6;;;;;;;16.05;88.78027;936.2651;;;;
2020/09/20 04:48:41;;;;;;;4.1;2.8;;;;;;;16.19;87.44531;936.2582;;;;
2020/09/20 04:51:06;;;;;;;5;2.6;;;;;;;16.3;86.29785;936.2416;;;;
2020/09/20 04:53:36;;;;;;;4.4;2.2;;;;;;;16.37;85.57324;936.274;;;;
2020/09/20 04:56:01;;;;;;;13.3;3.1;;;;;;;16.34;85.53223;936.3156;;;;
2020/09/20 04:58:26;;;;;;;3.1;2.1;;;;;;;16.33;85.62305;936.3373;;;;
2020/09/20 05:00:51;;;;;;;3.6;2.3;;;;;;;16.35;85.2793;936.2311;;;;
2020/09/20 05:03:18;;;;;;;3.3;2.4;;;;;;;16.39;84.79004;936.2385;;;;
2020/09/20 05:05:44;;;;;;;4.8;2.8;;;;;;;16.43;84.52148;936.3088;;;;
2020/09/20 05:08:10;;;;;;;3.9;2.5;;;;;;;16.5;84.53125;936.3592;;;;
2020/09/20 05:10:35;;;;;;;3.7;2.5;;;;;;;16.53;84.21582;936.3915;;;;
2020/09/20 05:12:59;;;;;;;4.1;2.3;;;;;;;16.54;83.70898;936.3576;;;;
2020/09/20 05:15:25;;;;;;;5.3;2.6;;;;;;;16.55;83.85938;936.4025;;;;
2020/09/20 05:17:50;;;;;;;4.9;2.8;;;;;;;16.52;84.09668;936.387;;;;
2020/09/20 05:20:17;;;;;;;3.1;2.2;;;;;;;16.55;83.82617;936.3734;;;;
2020/09/20 05:22:41;;;;;;;4;2.6;;;;;;;16.56;83.49219;936.4553;;;;
2020/09/20 05:25:07;;;;;;;3.6;2.5;;;;;;;16.51;84.03711;936.49;;;;
2020/09/20 05:27:32;;;;;;;2.9;2.3;;;;;;;16.43;84.24121;936.5081;;;;
2020/09/20 05:29:57;;;;;;;4.9;2.9;;;;;;;16.47;84.45703;936.4891;;;;
2020/09/20 05:32:23;;;;;;;4.4;2.5;;;;;;;16.59;84.41211;936.475;;;;
2020/09/20 05:34:48;;;;;;;4.9;2.5;;;;;;;16.63;83.71289;936.4827;;;;
2020/09/20 05:37:15;;;;;;;3.8;2.7;;;;;;;16.67;83.23438;936.4702;;;;
2020/09/20 05:39:40;;;;;;;3.2;2.1;;;;;;;16.69;82.94824;936.5535;;;;
2020/09/20 05:42:06;;;;;;;5;2.6;;;;;;;16.72;82.60645;936.6294;;;;
2020/09/20 05:44:32;;;;;;;3.4;2.2;;;;;;;16.72;82.45605;936.6375;;;;
2020/09/20 05:46:59;;;;;;;5.2;3;;;;;;;16.74;82.23926;936.6459;;;;
2020/09/20 05:49:25;;;;;;;4;2.4;;;;;;;16.72;82.33984;936.6085;;;;
2020/09/20 05:51:50;;;;;;;5.4;2.5;;;;;;;16.81;81.98438;936.6761;;;;
2020/09/20 05:54:15;;;;;;;2.5;2.2;;;;;;;16.88;81.68555;936.6575;;;;
2020/09/20 05:56:41;;;;;;;2.8;2.2;;;;;;;16.89;81.35254;936.6509;;;;
2020/09/20 05:59:06;;;;;;;4.7;3.2;;;;;;;16.91;81.15918;936.6916;;;;
2020/09/20 06:01:34;;;;;;;2.8;2.2;;;;;;;16.95;81.33008;936.7288;;;;
2020/09/20 06:03:59;;;;;;;3.4;2.3;;;;;;;17.05;81.64746;936.7064;;;;
2020/09/20 06:06:24;;;;;;;4.6;2.7;;;;;;;17.24;81.53223;936.6822;;;;
2020/09/20 06:08:49;;;;;;;3.4;2.3;;;;;;;17.4;81.20313;936.639;;;;
2020/09/20 06:11:15;;;;;;;3.3;2.1;;;;;;;17.57;80.3877;936.6495;;;;
2020/09/20 06:13:40;;;;;;;4.4;2.8;;;;;;;17.83;79.44824;936.6225;;;;
2020/09/20 06:16:07;;;;;;;4.4;2.8;;;;;;;18.13;78.00391;936.7057;;;;
2020/09/20 06:18:32;;;;;;;5.6;2.8;;;;;;;18.48;76.43848;936.6299;;;;
2020/09/20 06:20:58;;;;;;;4.4;2.7;;;;;;;18.85;74.89648;936.6686;;;;
2020/09/20 06:23:23;;;;;;;4.2;2.6;;;;;;;19.14;73.74609;936.6461;;;;
2020/09/20 06:25:48;;;;;;;2.9;2.6;;;;;;;19.5;72.69922;936.6813;;;;
2020/09/20 06:28:14;;;;;;;15;2.7;;;;;;;19.7;71.75293;936.6869;;;;
2020/09/20 06:30:40;;;;;;;4;2.6;;;;;;;19.83;71.25;936.6205;;;;
2020/09/20 06:33:05;;;;;;;3.1;2.1;;;;;;;19.87;70.5791;936.5742;;;;
2020/09/20 06:35:30;;;;;;;3.9;2.3;;;;;;;19.91;70.95801;936.628;;;;
2020/09/20 06:37:57;;;;;;;3.6;2.3;;;;;;;19.88;70.79102;936.6198;;;;
2020/09/20 06:40:23;;;;;;;4.3;2.3;;;;;;;19.94;70.75293;936.632;;;;
2020/09/20 06:42:50;;;;;;;4.3;2.5;;;;;;;19.66;71.38379;936.5815;;;;
2020/09/20 06:45:15;;;;;;;2.8;2.1;;;;;;;19.57;73.00293;936.6321;;;;
2020/09/20 06:47:42;;;;;;;6.9;2.8;;;;;;;19.38;73.86719;936.6869;;;;
2020/09/20 06:50:07;;;;;;;5.4;3.1;;;;;;;19.55;73.68555;936.649;;;;
2020/09/20 06:52:32;;;;;;;4.1;3.1;;;;;;;19.79;72.87402;936.5714;;;;
2020/09/20 06:54:57;;;;;;;4.5;2.4;;;;;;;19.91;72.84766;936.6312;;;;
2020/09/20 06:57:22;;;;;;;5.6;2.3;;;;;;;20.07;72.34961;936.605;;;;
2020/09/20 06:59:49;;;;;;;3.4;2.6;;;;;;;19.89;73.18359;936.6058;;;;
2020/09/20 07:02:14;;;;;;;4.3;2.6;;;;;;;19.67;74.36035;936.6701;;;;
2020/09/20 07:04:39;;;;;;;3.2;2.6;;;;;;;19.81;73.20508;936.6533;;;;
2020/09/20 07:07:05;;;;;;;4.1;2.5;;;;;;;19.53;74.89551;936.7316;;;;
2020/09/20 07:09:30;;;;;;;3.7;2.7;;;;;;;19.8;73.40332;936.731;;;;
2020/09/20 07:11:56;;;;;;;3.6;2.5;;;;;;;20.08;72.81836;936.7162;;;;
2020/09/20 07:14:21;;;;;;;5.3;2.9;;;;;;;20.16;72.3877;936.7299;;;;
2020/09/20 07:16:49;;;;;;;3.3;2.3;;;;;;;20.44;71.24219;936.7126;;;;
2020/09/20 07:19:14;;;;;;;4.9;3.1;;;;;;;20.75;70.07813;936.6868;;;;
2020/09/20 07:21:40;;;;;;;3.9;2.1;;;;;;;21.02;68.60059;936.6888;;;;
2020/09/20 07:24:09;;;;;;;3.6;2.6;;;;;;;21.07;68.50195;936.7061;;;;
2020/09/20 07:26:35;;;;;;;3.1;2.4;;;;;;;21.21;67.78613;936.6805;;;;
2020/09/20 07:29:00;;;;;;;3.4;2.4;;;;;;;21.56;66.91504;936.6472;;;;
2020/09/20 07:31:25;;;;;;;4.3;2.2;;;;;;;22.21;64.94922;936.5595;;;;
2020/09/20 07:33:50;;;;;;;2.8;1.7;;;;;;;22.9;62.39551;936.5443;;;;
2020/09/20 07:36:15;;;;;;;2.9;2;;;;;;;23.63;59.86328;936.558;;;;
2020/09/20 07:38:42;;;;;;;2.7;1.5;;;;;;;25.11;55.53027;936.5737;;;;
2020/09/20 07:41:06;;;;;;;3.5;2;;;;;;;25.6;53.67676;936.5914;;;;
2020/09/20 07:43:34;;;;;;;3.2;1.4;;;;;;;26.51;51.34668;936.6184;;;;
2020/09/20 07:45:59;;;;;;;2.4;1.4;;;;;;;27.02;49.61621;936.6152;;;;
2020/09/20 07:48:24;;;;;;;2.6;1.3;;;;;;;28.07;46.54785;936.555;;;;
2020/09/20 07:50:50;;;;;;;4.1;1.6;;;;;;;28.85;44.91406;936.5472;;;;
2020/09/20 07:53:17;;;;;;;3.1;1.6;;;;;;;29.52;43.02734;936.4894;;;;
2020/09/20 07:55:42;;;;;;;3.3;1.4;;;;;;;30.31;41.00098;936.4579;;;;
2020/09/20 07:58:09;;;;;;;2.7;1.5;;;;;;;30.93;39.8252;936.4102;;;;
2020/09/20 08:00:36;;;;;;;1.8;1.1;;;;;;;30.53;41.10352;936.4352;;;;
2020/09/20 08:03:01;;;;;;;2.2;1.2;;;;;;;31.68;38.4541;936.4386;;;;
2020/09/20 08:05:26;;;;;;;1.9;1.3;;;;;;;31.84;38.22754;936.4246;;;;
2020/09/20 08:07:52;;;;;;;2.5;1.2;;;;;;;31.8;37.78125;936.3674;;;;
2020/09/20 08:10:20;;;;;;;2.4;1.4;;;;;;;32.31;36.91211;936.3688;;;;
2020/09/20 08:12:45;;;;;;;1.9;1.3;;;;;;;32.99;35.69531;936.3078;;;;
2020/09/20 08:15:10;;;;;;;1.4;1.1;;;;;;;33.6;34.55176;936.2573;;;;
2020/09/20 08:17:35;;;;;;;2.7;1.3;;;;;;;33.96;34.21875;936.343;;;;
2020/09/20 08:20:00;;;;;;;1.2;0.8;;;;;;;34.41;33.22852;936.3461;;;;
2020/09/20 08:22:25;;;;;;;2.2;1.3;;;;;;;34.77;33.00098;936.2972;;;;
2020/09/20 08:24:52;;;;;;;2.5;1.2;;;;;;;34.51;32.91016;936.3126;;;;
2020/09/20 08:27:17;;;;;;;2.7;1.6;;;;;;;34.34;32.56055;936.3504;;;;
2020/09/20 08:29:43;;;;;;;3.5;1.3;;;;;;;33.97;33.77344;936.2974;;;;
2020/09/20 08:32:08;;;;;;;1.9;1.2;;;;;;;34.37;32.91211;936.311;;;;
2020/09/20 08:34:37;;;;;;;2.1;1.4;;;;;;;34.59;32.66211;936.3749;;;;
2020/09/20 08:37:00;;;;;;;3.6;1.6;;;;;;;34.54;32.49023;936.3376;;;;
2020/09/20 08:39:27;;;;;;;2.6;1.4;;;;;;;34.72;32.92578;936.2831;;;;
2020/09/20 08:41:52;;;;;;;6.3;1.6;;;;;;;34.37;33.91211;936.3434;;;;
2020/09/20 08:44:18;;;;;;;3.8;1.6;;;;;;;34.79;33.24316;936.318;;;;
2020/09/20 08:46:44;;;;;;;2.8;1.5;;;;;;;35.23;32.16504;936.3605;;;;
2020/09/20 08:49:10;;;;;;;2.2;1.6;;;;;;;35.31;32.38867;936.3269;;;;
2020/09/20 08:51:35;;;;;;;3.9;1.6;;;;;;;35.23;31.33203;936.3113;;;;
2020/09/20 08:54:02;;;;;;;1.5;1.2;;;;;;;34.71;32.5625;936.29;;;;
2020/09/20 08:56:27;;;;;;;1.5;1.4;;;;;;;34.56;33.29883;936.2811;;;;
2020/09/20 08:58:53;;;;;;;4.2;1.2;;;;;;;34.71;33.08105;936.1908;;;;
2020/09/20 09:01:18;;;;;;;4.1;1.6;;;;;;;34.39;33.29883;936.2349;;;;
2020/09/20 09:03:45;;;;;;;4.5;1.8;;;;;;;34.41;34.28906;936.2452;;;;
2020/09/20 09:06:10;;;;;;;1.8;1.3;;;;;;;34.33;34.22168;936.2537;;;;
2020/09/20 09:08:35;;;;;;;2.3;1.4;;;;;;;33.38;36.20605;936.2081;;;;
2020/09/20 09:11:00;;;;;;;2.1;1.4;;;;;;;33.24;36.62695;936.1989;;;;
2020/09/20 09:13:25;;;;;;;5.8;1.9;;;;;;;32.72;37.12598;936.1578;;;;
2020/09/20 09:15:51;;;;;;;3.9;1.7;;;;;;;32.75;36.63574;936.084;;;;
2020/09/20 09:18:16;;;;;;;2.1;1.4;;;;;;;32.57;37.66602;936.0655;;;;
2020/09/20 09:20:42;;;;;;;2.3;1.4;;;;;;;32.4;38.44336;935.9817;;;;
2020/09/20 09:23:06;;;;;;;2.3;1.5;;;;;;;32.53;37.80664;936.0255;;;;
2020/09/20 09:25:34;;;;;;;2.5;1.8;;;;;;;31.9;39.12012;936.0024;;;;
2020/09/20 09:27:59;;;;;;;2.8;1.5;;;;;;;31.81;39.54297;936.012;;;;
2020/09/20 09:30:26;;;;;;;2.2;1.2;;;;;;;31.41;39.59277;935.9787;;;;
2020/09/20 09:32:53;;;;;;;2.3;1.5;;;;;;;31.12;41.14648;935.983;;;;
2020/09/20 09:35:18;;;;;;;1.5;1.4;;;;;;;30.19;42.57715;935.9406;;;;
2020/09/20 09:37:44;;;;;;;2.9;1.5;;;;;;;29.14;44.89551;935.9407;;;;
2020/09/20 09:40:08;;;;;;;3.2;1.7;;;;;;;28.54;45.28809;935.8666;;;;
2020/09/20 09:42:34;;;;;;;4.5;2.2;;;;;;;27.75;49.50586;935.9155;;;;
2020/09/20 09:44:59;;;;;;;2.2;1.4;;;;;;;27.83;49.16016;935.88;;;;
2020/09/20 09:47:24;;;;;;;2.7;1.7;;;;;;;27.9;49.06055;935.7679;;;;
2020/09/20 09:49:49;;;;;;;2.7;1.5;;;;;;;28.24;48.26465;935.7515;;;;
2020/09/20 09:52:14;;;;;;;2.7;2.1;;;;;;;28.2;47.22754;935.774;;;;
2020/09/20 09:54:40;;;;;;;1.6;1.3;;;;;;;28.49;46.94824;935.7653;;;;
2020/09/20 09:57:05;;;;;;;2.2;1.4;;;;;;;28.67;45.95508;935.7689;;;;
2020/09/20 09:59:33;;;;;;;3.8;1.8;;;;;;;28.86;45.86719;935.7769;;;;
2020/09/20 10:01:59;;;;;;;2.6;1.5;;;;;;;28.61;46.05762;935.7722;;;;
2020/09/20 10:04:24;;;;;;;2.5;1.7;;;;;;;27.99;47.72754;935.8016;;;;
2020/09/20 10:06:52;;;;;;;3.2;2;;;;;;;26.99;50.34668;935.7992;;;;
2020/09/20 10:09:17;;;;;;;2.9;1.9;;;;;;;27.15;50.00977;935.7281;;;;
2020/09/20 10:11:43;;;;;;;2.6;1.9;;;;;;;26.97;50.49902;935.7;;;;
2020/09/20 10:14:08;;;;;;;2.8;1.9;;;;;;;26.9;51.46289;935.6786;;;;
2020/09/20 10:16:33;;;;;;;3.3;2.2;;;;;;;26.79;51.88965;935.7162;;;;
2020/09/20 10:18:58;;;;;;;2.7;1.7;;;;;;;26.54;52.47559;935.6316;;;;
2020/09/20 10:21:24;;;;;;;3.1;1.8;;;;;;;26.1;53.39453;935.7548;;;;
2020/09/20 10:23:49;;;;;;;3.7;2.2;;;;;;;26.12;55.13477;935.7936;;;;
2020/09/20 10:26:15;;;;;;;3.7;1.9;;;;;;;26.22;54.02441;935.7537;;;;
2020/09/20 10:28:40;;;;;;;3.9;2.1;;;;;;;26.07;53.8877;935.7272;;;;
2020/09/20 10:31:09;;;;;;;2.9;1.9;;;;;;;26.22;53.65625;935.6447;;;;
2020/09/20 10:33:33;;;;;;;3.9;2.1;;;;;;;26.11;54.28223;935.7374;;;;
2020/09/20 10:36:00;;;;;;;2.7;1.9;;;;;;;26.15;54.74805;935.6933;;;;
2020/09/20 10:38:25;;;;;;;4.7;2.7;;;;;;;26.21;54.79199;935.7299;;;;
2020/09/20 10:40:51;;;;;;;2.8;2;;;;;;;26.73;53.77637;935.7422;;;;
2020/09/20 10:43:17;;;;;;;2.4;1.8;;;;;;;26.58;52.89453;935.6174;;;;
2020/09/20 10:45:42;;;;;;;2.4;1.7;;;;;;;26.62;52.92383;935.6703;;;;
2020/09/20 10:48:09;;;;;;;2.2;1.7;;;;;;;26.96;51.96777;935.6569;;;;
2020/09/20 10:50:34;;;;;;;3.6;1.9;;;;;;;26.96;51.65918;935.6464;;;;
2020/09/20 10:53:00;;;;;;;3;1.7;;;;;;;27.12;51.31055;935.5966;;;;
2020/09/20 10:55:25;;;;;;;3.9;2.2;;;;;;;27.23;51.16797;935.6314;;;;
2020/09/20 10:57:52;;;;;;;1.8;1.4;;;;;;;27.27;52.02734;935.6248;;;;
2020/09/20 11:00:18;;;;;;;3.5;2.3;;;;;;;27.43;50.88281;935.5779;;;;
2020/09/20 11:02:46;;;;;;;4.1;2;;;;;;;27.34;51.03906;935.5137;;;;
2020/09/20 11:05:09;;;;;;;2.9;1.8;;;;;;;27.49;51.49512;935.5468;;;;
2020/09/20 11:07:35;;;;;;;3.8;2.2;;;;;;;27.19;52.04199;935.5361;;;;
2020/09/20 11:10:01;;;;;;;1.5;1.3;;;;;;;27.57;51.125;935.4846;;;;
2020/09/20 11:12:26;;;;;;;3.3;1.7;;;;;;;27.69;51.96875;935.4819;;;;
2020/09/20 11:14:52;;;;;;;4.1;1.9;;;;;;;28.09;49.50781;935.4922;;;;
2020/09/20 11:17:19;;;;;;;4.7;1.7;;;;;;;28.26;50.38281;935.4377;;;;
2020/09/20 11:19:44;;;;;;;4.4;2.4;;;;;;;28.13;49.77441;935.4189;;;;
2020/09/20 11:22:11;;;;;;;2.9;1.9;;;;;;;27.92;49.90527;935.4756;;;;
2020/09/20 11:24:36;;;;;;;6.5;1.9;;;;;;;27.33;51.66504;935.468;;;;
2020/09/20 11:27:04;;;;;;;3.6;2.1;;;;;;;26.99;51.89941;935.3856;;;;
2020/09/20 11:29:28;;;;;;;2.2;1.8;;;;;;;26.45;53.76758;935.4244;;;;
2020/09/20 11:31:55;;;;;;;3.1;1.7;;;;;;;26.41;54.49609;935.3764;;;;
2020/09/20 11:34:20;;;;;;;2.8;1.9;;;;;;;26.48;54.09082;935.3788;;;;
2020/09/20 11:36:46;;;;;;;5.1;2;;;;;;;26.08;55.2832;935.3701;;;;
2020/09/20 11:39:11;;;;;;;2.9;2;;;;;;;26.39;54.51758;935.3703;;;;
2020/09/20 11:41:36;;;;;;;2.6;1.8;;;;;;;26.68;53.77051;935.3884;;;;
2020/09/20 11:44:03;;;;;;;4.4;2.2;;;;;;;26.03;55.65625;935.3002;;;;
2020/09/20 11:46:27;;;;;;;2.7;1.8;;;;;;;26.23;55.2666;935.3022;;;;
2020/09/20 11:48:54;;;;;;;3.4;2.2;;;;;;;25.88;56.09961;935.325;;;;
2020/09/20 11:51:19;;;;;;;1.9;1.4;;;;;;;25.71;56.24316;935.2769;;;;
2020/09/20 11:53:45;;;;;;;3.1;1.7;;;;;;;25.79;56.80957;935.2996;;;;
2020/09/20 11:56:10;;;;;;;4.3;1.6;;;;;;;26.22;56.98242;935.3488;;;;
2020/09/20 11:58:37;;;;;;;2.6;1.9;;;;;;;26.6;54.93457;935.2311;;;;
2020/09/20 12:01:04;;;;;;;2.3;1.8;;;;;;;26.77;53.46191;935.2112;;;;
2020/09/20 12:03:29;;;;;;;1.5;1.3;;;;;;;26.75;55.54492;935.1411;;;;
2020/09/20 12:05:58;;;;;;;2.6;2.2;;;;;;;26.51;54.63965;935.1537;;;;
2020/09/20 12:08:26;;;;;;;3;1.9;;;;;;;26.4;55.64258;935.1558;;;;
2020/09/20 12:10:52;;;;;;;3.1;1.6;;;;;;;26.45;54.69043;935.181;;;;
2020/09/20 12:13:18;;;;;;;2.7;1.4;;;;;;;26.94;53.41113;935.1461;;;;
2020/09/20 12:15:44;;;;;;;3.6;1.9;;;;;;;27.16;52.14551;935.1422;;;;
2020/09/20 12:18:09;;;;;;;2.1;1.7;;;;;;;26.81;53.75195;935.1186;;;;
2020/09/20 12:20:34;;;;;;;2.1;1.7;;;;;;;26.94;53.29297;935.1239;;;;
2020/09/20 12:23:01;;;;;;;2.4;1.8;;;;;;;27.06;54.48145;935.0829;;;;
2020/09/20 12:25:26;;;;;;;3;1.5;;;;;;;27.28;52.60938;935.0913;;;;
2020/09/20 12:27:52;;;;;;;1.5;1;;;;;;;27.5;52.42188;934.9883;;;;
2020/09/20 12:30:18;;;;;;;12;2.1;;;;;;;27.29;52.10059;935.058;;;;
2020/09/20 12:32:43;;;;;;;2;1.3;;;;;;;27.15;53.18652;934.9648;;;;
2020/09/20 12:35:08;;;;;;;2.5;1.4;;;;;;;27.42;53.4209;935.0731;;;;
2020/09/20 12:37:35;;;;;;;3.3;1.3;;;;;;;27.61;51.17676;935.0101;;;;
2020/09/20 12:39:59;;;;;;;2.9;1.5;;;;;;;27.73;51.94922;935.088;;;;
2020/09/20 12:42:29;;;;;;;2.2;1.6;;;;;;;27.92;51.61621;935.0585;;;;
2020/09/20 12:44:54;;;;;;;3.3;1.7;;;;;;;27.67;52.15723;934.9576;;;;
2020/09/20 12:47:19;;;;;;;1.8;1.3;;;;;;;27.83;51.4502;934.9202;;;;
2020/09/20 12:49:44;;;;;;;2.4;1.9;;;;;;;27.97;50.69531;934.9286;;;;
2020/09/20 12:52:11;;;;;;;1.5;1.3;;;;;;;27.72;50.60742;934.9377;;;;
2020/09/20 12:54:37;;;;;;;4;1.5;;;;;;;27.85;50.08789;934.8869;;;;
2020/09/20 12:57:09;;;;;;;1.9;1.4;;;;;;;27.93;50.61816;934.8856;;;;
2020/09/20 12:59:36;;;;;;;3;1.5;;;;;;;27.99;49.61621;934.8563;;;;
2020/09/20 13:02:01;;;;;;;1.9;1.3;;;;;;;27.91;49.13184;934.9586;;;;
2020/09/20 13:04:26;;;;;;;2.3;1.4;;;;;;;27.95;50.00293;934.9858;;;;
2020/09/20 13:06:52;;;;;;;3.2;1.6;;;;;;;28.06;48.69727;934.9152;;;;
2020/09/20 13:09:17;;;;;;;1.9;1.6;;;;;;;27.77;49.25977;934.962;;;;
2020/09/20 13:11:44;;;;;;;2.6;1.8;;;;;;;27.72;49.55176;934.908;;;;
2020/09/20 13:14:09;;;;;;;2.5;1.7;;;;;;;27.75;51.25195;934.9208;;;;
2020/09/20 13:16:36;;;;;;;3.8;1.2;;;;;;;27.71;49.41895;934.9233;;;;
2020/09/20 13:19:01;;;;;;;2.3;1.3;;;;;;;27.73;50.66699;934.9322;;;;
2020/09/20 13:21:26;;;;;;;2.5;1.1;;;;;;;27.76;50.06543;934.8697;;;;
2020/09/20 13:23:52;;;;;;;2.3;1.3;;;;;;;27.89;49.65234;934.8773;;;;
2020/09/20 13:26:18;;;;;;;1.8;1.5;;;;;;;27.84;49.31445;934.8699;;;;
2020/09/20 13:28:46;;;;;;;2.3;1.8;;;;;;;27.67;48.45215;934.8853;;;;
2020/09/20 13:31:11;;;;;;;2.2;1.4;;;;;;;27.84;49.55273;934.8613;;;;
2020/09/20 13:33:36;;;;;;;3.6;1.7;;;;;;;27.7;48.87207;934.8362;;;;
2020/09/20 13:36:05;;;;;;;2.7;1.4;;;;;;;27.35;50.98047;934.895;;;;
2020/09/20 13:38:31;;;;;;;2.6;1.3;;;;;;;27.49;49.36035;934.8921;;;;
2020/09/20 13:41:00;;;;;;;3.4;1.6;;;;;;;27.47;49.27441;934.897;;;;
2020/09/20 13:43:23;;;;;;;2.3;1.6;;;;;;;27.52;49.70703;934.8898;;;;
2020/09/20 13:45:49;;;;;;;2.1;1.5;;;;;;;27.64;49.81543;934.8803;;;;
2020/09/20 13:48:14;;;;;;;1.5;1.1;;;;;;;27.72;50.37109;934.867;;;;
2020/09/20 13:50:40;;;;;;;2.9;1.4;;;;;;;27.81;50.22559;934.8786;;;;
2020/09/20 13:53:05;;;;;;;2.5;1.6;;;;;;;27.78;49.81836;934.928;;;;
2020/09/20 13:55:37;;;;;;;1.1;1;;;;;;;27.73;49.50488;934.8965;;;;
2020/09/20 13:58:02;;;;;;;3.3;1.2;;;;;;;27.47;49.30957;934.9925;;;;
2020/09/20 14:00:31;;;;;;;1.9;1.5;;;;;;;27.26;49.91504;934.9381;;;;
2020/09/20 14:02:56;;;;;;;1.6;1.4;;;;;;;27.05;50.69824;934.9233;;;;
2020/09/20 14:05:26;;;;;;;2.7;1.5;;;;;;;26.89;51.93652;934.8716;;;;
2020/09/20 14:07:51;;;;;;;2.3;1.4;;;;;;;26.75;53.50684;934.927;;;;
2020/09/20 14:10:21;;;;;;;2.5;1.7;;;;;;;26.52;54.20215;934.895;;;;
2020/09/20 14:12:47;;;;;;;2;1.5;;;;;;;26.28;54.90625;934.9362;;;;
2020/09/20 14:15:12;;;;;;;2.1;1.4;;;;;;;26.25;55.63574;934.9144;;;;
2020/09/20 14:17:37;;;;;;;3.4;1.6;;;;;;;26.2;55.92578;934.9437;;;;
2020/09/20 14:20:03;;;;;;;10.3;2.2;;;;;;;25.95;56.56836;934.9763;;;;
2020/09/20 14:22:28;;;;;;;3.3;1.6;;;;;;;25.79;56.82129;934.9895;;;;
2020/09/20 14:24:55;;;;;;;4.6;1.9;;;;;;;25.6;58.03711;935.0008;;;;
2020/09/20 14:27:20;;;;;;;3.3;1.8;;;;;;;25.49;58.37695;934.9507;;;;
2020/09/20 14:29:48;;;;;;;2.5;1.9;;;;;;;25.35;57.65039;935.0008;;;;
2020/09/20 14:32:14;;;;;;;3.9;1.7;;;;;;;25.23;58.67383;934.9952;;;;
2020/09/20 14:34:38;;;;;;;2.7;1.7;;;;;;;25.17;58.54785;935.0477;;;;
2020/09/20 14:37:05;;;;;;;3.7;1.7;;;;;;;25.18;58.26563;935.0331;;;;
2020/09/20 14:39:30;;;;;;;3.4;1.7;;;;;;;25.14;58.63867;934.97;;;;
2020/09/20 14:41:55;;;;;;;3.1;1.5;;;;;;;25.05;58.11914;934.9568;;;;
2020/09/20 14:44:20;;;;;;;2.6;1.5;;;;;;;25.04;58.82617;935.0438;;;;
2020/09/20 14:46:46;;;;;;;2.2;1.6;;;;;;;24.98;58.53516;935.0673;;;;
2020/09/20 14:49:12;;;;;;;2.3;1.5;;;;;;;24.98;58.23828;935.1066;;;;
2020/09/20 14:51:37;;;;;;;3.1;1.6;;;;;;;24.69;59.39355;935.0966;;;;
2020/09/20 14:54:04;;;;;;;3.2;1.6;;;;;;;24.68;59.2627;935.0994;;;;
2020/09/20 14:56:29;;;;;;;2;1.7;;;;;;;24.78;58.94531;935.118;;;;
2020/09/20 14:58:54;;;;;;;2.2;1.6;;;;;;;24.84;59.30762;935.0811;;;;
2020/09/20 15:01:19;;;;;;;2.5;1.2;;;;;;;24.78;59.39355;935.1245;;;;
2020/09/20 15:03:45;;;;;;;3;1.8;;;;;;;24.49;59.5791;935.0574;;;;
2020/09/20 15:06:11;;;;;;;2.7;1.6;;;;;;;24.51;59.86426;935.0328;;;;
2020/09/20 15:08:36;;;;;;;2.3;1.6;;;;;;;24.54;60.20996;935.1395;;;;
2020/09/20 15:11:03;;;;;;;2.3;1.5;;;;;;;24.56;59.87012;935.155;;;;
2020/09/20 15:13:29;;;;;;;5.3;2.1;;;;;;;24.46;60.98926;935.2363;;;;
2020/09/20 15:15:58;;;;;;;3.4;1.3;;;;;;;24.3;62.8291;935.1275;;;;
2020/09/20 15:18:25;;;;;;;2.9;2;;;;;;;24.29;64.02734;935.1273;;;;
2020/09/20 15:20:51;;;;;;;4.5;1.8;;;;;;;24.26;64.80176;935.108;;;;
2020/09/20 15:23:16;;;;;;;3.8;2;;;;;;;24.13;65.90137;935.1324;;;;
2020/09/20 15:25:46;;;;;;;2.8;1.8;;;;;;;23.9;66.66895;935.1627;;;;
2020/09/20 15:28:13;;;;;;;2.7;1.4;;;;;;;23.88;66.81738;935.2037;;;;
2020/09/20 15:30:41;;;;;;;7.1;2.5;;;;;;;23.64;68.67676;935.2981;;;;